createdAt,value
2022-11-27T00:00:15.958Z,62.82
2022-11-27T00:01:13.877Z,63.84
2022-11-27T00:01:47.833Z,64.14
2022-11-27T00:02:21.303Z,63.30
2022-11-27T00:02:54.849Z,62.64
2022-11-27T00:03:28.376Z,62.24
2022-11-27T00:04:01.831Z,61.16
2022-11-27T00:04:35.325Z,60.67
2022-11-27T00:05:08.795Z,60.17
2022-11-27T00:05:50.849Z,59.64
2022-11-27T00:06:25.204Z,58.71
2022-11-27T00:06:58.356Z,57.99
2022-11-27T00:07:31.364Z,57.87
2022-11-27T00:08:04.745Z,57.97
2022-11-27T00:08:38.031Z,58.60
2022-11-27T00:09:12.544Z,59.65
2022-11-27T00:09:45.677Z,60.25
2022-11-27T00:10:19.048Z,61.01
2022-11-27T00:10:52.318Z,61.83
2022-11-27T00:11:26.539Z,62.72
2022-11-27T00:11:59.852Z,63.57
2022-11-27T00:12:33.573Z,63.95
2022-11-27T00:13:06.659Z,63.68
2022-11-27T00:13:40.214Z,63.21
2022-11-27T00:14:14.808Z,62.84
2022-11-27T00:14:52.250Z,61.68
2022-11-27T00:15:27.943Z,60.60
2022-11-27T00:16:01.146Z,60.41
2022-11-27T00:16:34.234Z,59.60
2022-11-27T00:17:07.301Z,58.94
2022-11-27T00:17:40.581Z,58.15
2022-11-27T00:18:13.733Z,57.91
2022-11-27T00:18:47.158Z,57.85
2022-11-27T00:19:20.845Z,58.46
2022-11-27T00:19:54.107Z,59.26
2022-11-27T00:20:29.740Z,59.90
2022-11-27T00:21:07.620Z,60.56
2022-11-27T00:21:41.240Z,61.67
2022-11-27T00:22:14.679Z,62.55
2022-11-27T00:22:56.027Z,63.68
2022-11-27T00:23:29.306Z,64.49
2022-11-27T00:24:04.149Z,64.65
2022-11-27T00:24:37.431Z,64.41
2022-11-27T00:25:10.894Z,63.56
2022-11-27T00:25:51.527Z,62.65
2022-11-27T00:26:26.667Z,61.98
2022-11-27T00:26:59.737Z,60.81
2022-11-27T00:27:33.085Z,60.01
2022-11-27T00:28:11.008Z,59.14
2022-11-27T00:28:44.428Z,58.05
2022-11-27T00:29:17.521Z,57.46
2022-11-27T00:29:52.985Z,57.56
2022-11-27T00:30:29.764Z,57.87
2022-11-27T00:31:07.510Z,58.91
2022-11-27T00:31:40.898Z,59.44
2022-11-27T00:32:14.316Z,60.48
2022-11-27T00:32:47.508Z,61.16
2022-11-27T00:33:20.782Z,62.03
2022-11-27T00:33:58.012Z,62.94
2022-11-27T00:34:31.276Z,63.77
2022-11-27T00:35:04.981Z,64.15
2022-11-27T00:35:42.554Z,63.88
2022-11-27T00:36:15.848Z,63.31
2022-11-27T00:36:49.055Z,62.51
2022-11-27T00:37:22.157Z,61.48
2022-11-27T00:37:55.454Z,60.57
2022-11-27T00:38:28.592Z,59.63
2022-11-27T00:39:02.158Z,58.64
2022-11-27T00:39:35.529Z,57.90
2022-11-27T00:40:09.096Z,57.63
2022-11-27T00:40:42.404Z,57.51
2022-11-27T00:41:16.879Z,57.91
2022-11-27T00:41:50.211Z,58.65
2022-11-27T00:42:23.335Z,59.50
2022-11-27T00:42:56.585Z,60.33
2022-11-27T00:43:29.800Z,61.08
2022-11-27T00:44:03.004Z,62.10
2022-11-27T00:44:36.057Z,62.81
2022-11-27T00:45:09.455Z,63.69
2022-11-27T00:45:42.596Z,63.93
2022-11-27T00:46:16.826Z,63.88
2022-11-27T00:46:50.164Z,63.63
2022-11-27T00:47:25.062Z,62.87
2022-11-27T00:47:58.246Z,61.95
2022-11-27T00:48:31.750Z,60.84
2022-11-27T00:49:06.095Z,59.86
2022-11-27T00:49:39.346Z,59.02
2022-11-27T00:50:12.421Z,58.31
2022-11-27T00:50:45.525Z,58.01
2022-11-27T00:51:20.193Z,57.96
2022-11-27T00:51:53.301Z,58.55
2022-11-27T00:52:26.504Z,58.95
2022-11-27T00:52:59.796Z,60.08
2022-11-27T00:53:34.358Z,60.81
2022-11-27T00:54:08.007Z,61.44
2022-11-27T00:54:41.336Z,62.52
2022-11-27T00:55:14.788Z,63.39
2022-11-27T00:55:48.049Z,63.95
2022-11-27T00:56:25.854Z,64.10
2022-11-27T00:56:59.233Z,64.11
2022-11-27T00:57:32.398Z,63.55
2022-11-27T00:58:05.590Z,62.62
2022-11-27T00:58:38.793Z,61.95
2022-11-27T00:59:12.160Z,61.13
2022-11-27T00:59:45.454Z,60.15
2022-11-27T01:00:18.988Z,59.24
2022-11-27T01:00:59.658Z,58.50
2022-11-27T01:01:34.506Z,57.84
2022-11-27T01:02:07.846Z,57.97
2022-11-27T01:02:41.345Z,58.54
2022-11-27T01:03:14.811Z,59.32
2022-11-27T01:03:48.470Z,59.81
2022-11-27T01:04:21.546Z,60.61
2022-11-27T01:04:54.730Z,61.50
2022-11-27T01:05:27.829Z,62.22
2022-11-27T01:06:04.729Z,63.12
2022-11-27T01:06:37.889Z,63.92
2022-11-27T01:07:11.171Z,64.30
2022-11-27T01:07:45.039Z,63.98
2022-11-27T01:08:19.729Z,63.24
2022-11-27T01:08:52.794Z,62.40
2022-11-27T01:09:25.910Z,61.32
2022-11-27T01:09:59.364Z,60.52
2022-11-27T01:10:32.551Z,59.80
2022-11-27T01:11:05.787Z,58.96
2022-11-27T01:11:38.848Z,58.14
2022-11-27T01:12:11.899Z,57.73
2022-11-27T01:12:44.943Z,57.81
2022-11-27T01:13:18.485Z,58.19
2022-11-27T01:13:52.189Z,58.65
2022-11-27T01:14:25.431Z,59.36
2022-11-27T01:14:58.645Z,60.13
2022-11-27T01:15:31.714Z,61.14
2022-11-27T01:16:06.771Z,61.76
2022-11-27T01:16:43.154Z,62.38
2022-11-27T01:17:16.755Z,63.22
2022-11-27T01:17:49.906Z,64.11
2022-11-27T01:18:23.081Z,64.19
2022-11-27T01:18:58.210Z,63.66
2022-11-27T01:19:31.357Z,63.28
2022-11-27T01:20:04.631Z,62.38
2022-11-27T01:20:39.140Z,61.39
2022-11-27T01:21:12.922Z,60.72
2022-11-27T01:21:46.250Z,59.95
2022-11-27T01:22:19.431Z,59.23
2022-11-27T01:22:52.638Z,58.17
2022-11-27T01:23:26.408Z,57.60
2022-11-27T01:24:00.645Z,57.42
2022-11-27T01:24:34.046Z,57.76
2022-11-27T01:25:08.033Z,58.31
2022-11-27T01:25:41.279Z,59.04
2022-11-27T01:26:14.440Z,59.78
2022-11-27T01:26:47.618Z,60.55
2022-11-27T01:27:20.842Z,61.29
2022-11-27T01:27:53.936Z,62.15
2022-11-27T01:28:27.095Z,63.20
2022-11-27T01:29:00.528Z,63.89
2022-11-27T01:29:33.670Z,64.00
2022-11-27T01:30:07.226Z,63.75
2022-11-27T01:30:41.201Z,63.30
2022-11-27T01:31:16.966Z,62.46
2022-11-27T01:31:50.503Z,61.49
2022-11-27T01:32:23.774Z,60.42
2022-11-27T01:32:57.007Z,59.72
2022-11-27T01:33:30.187Z,58.78
2022-11-27T01:34:05.505Z,57.93
2022-11-27T01:34:38.982Z,57.37
2022-11-27T01:35:12.340Z,57.43
2022-11-27T01:35:53.644Z,57.71
2022-11-27T01:36:27.092Z,58.03
2022-11-27T01:37:00.118Z,59.09
2022-11-27T01:37:33.522Z,59.99
2022-11-27T01:38:06.736Z,60.74
2022-11-27T01:38:40.582Z,61.61
2022-11-27T01:39:20.745Z,62.34
2022-11-27T01:39:54.032Z,62.95
2022-11-27T01:40:27.146Z,64.08
2022-11-27T01:41:01.422Z,64.14
2022-11-27T01:41:36.651Z,63.56
2022-11-27T01:42:12.126Z,63.12
2022-11-27T01:42:45.561Z,62.32
2022-11-27T01:43:36.481Z,61.22
2022-11-27T01:44:25.971Z,60.60
2022-11-27T01:44:59.317Z,60.15
2022-11-27T01:45:32.410Z,58.62
2022-11-27T01:46:40.358Z,57.13
2022-11-27T01:47:12.084Z,56.35
2022-11-27T01:47:46.631Z,56.62
2022-11-27T01:48:18.397Z,57.85
2022-11-27T01:48:51.352Z,58.67
2022-11-27T01:49:23.109Z,59.22
2022-11-27T01:49:56.136Z,60.02
2022-11-27T01:50:35.840Z,60.75
2022-11-27T01:51:08.364Z,61.31
2022-11-27T01:51:40.355Z,62.29
2022-11-27T01:52:18.237Z,63.03
2022-11-27T01:52:51.875Z,63.83
2022-11-27T01:53:23.743Z,64.21
2022-11-27T01:53:55.835Z,63.97
2022-11-27T01:54:34.808Z,63.34
2022-11-27T01:55:06.682Z,62.80
2022-11-27T01:55:47.715Z,61.47
2022-11-27T01:56:20.470Z,60.92
2022-11-27T01:56:56.160Z,59.73
2022-11-27T01:57:35.515Z,59.01
2022-11-27T01:58:09.092Z,57.94
2022-11-27T01:58:41.142Z,57.44
2022-11-27T01:59:13.115Z,57.60
2022-11-27T01:59:46.095Z,58.04
2022-11-27T02:00:18.818Z,58.67
2022-11-27T02:00:50.623Z,59.33
2022-11-27T02:01:24.039Z,60.08
2022-11-27T02:01:56.957Z,60.74
2022-11-27T02:02:28.957Z,61.53
2022-11-27T02:03:01.107Z,62.34
2022-11-27T02:03:33.407Z,63.09
2022-11-27T02:04:05.176Z,63.89
2022-11-27T02:04:36.901Z,64.33
2022-11-27T02:05:09.455Z,64.33
2022-11-27T02:05:41.203Z,63.93
2022-11-27T02:06:13.457Z,63.10
2022-11-27T02:06:47.313Z,62.31
2022-11-27T02:07:21.357Z,61.64
2022-11-27T02:07:57.727Z,60.80
2022-11-27T02:08:29.797Z,60.00
2022-11-27T02:09:01.620Z,59.03
2022-11-27T02:09:33.506Z,58.05
2022-11-27T02:10:06.273Z,57.39
2022-11-27T02:10:51.068Z,57.34
2022-11-27T02:11:30.921Z,57.41
2022-11-27T02:12:11.846Z,58.07
2022-11-27T02:12:44.238Z,57.89
2022-11-27T02:13:18.822Z,58.01
2022-11-27T02:14:02.886Z,60.36
2022-11-27T02:14:53.465Z,60.97
2022-11-27T02:15:33.253Z,61.34
2022-11-27T02:16:05.096Z,62.80
2022-11-27T02:16:43.788Z,63.95
2022-11-27T02:17:20.051Z,64.49
2022-11-27T02:17:56.929Z,64.33
2022-11-27T02:18:28.834Z,63.63
2022-11-27T02:19:03.563Z,62.74
2022-11-27T02:19:50.955Z,61.96
2022-11-27T02:20:41.112Z,61.42
2022-11-27T02:21:21.899Z,60.71
2022-11-27T02:22:11.356Z,59.18
2022-11-27T02:22:49.161Z,57.39
2022-11-27T02:23:20.811Z,56.80
2022-11-27T02:23:52.643Z,57.06
2022-11-27T02:24:30.571Z,57.49
2022-11-27T02:25:06.507Z,58.04
2022-11-27T02:25:47.595Z,58.76
2022-11-27T02:26:22.175Z,59.41
2022-11-27T02:27:12.654Z,60.53
2022-11-27T02:27:47.252Z,61.14
2022-11-27T02:28:25.045Z,62.39
2022-11-27T02:29:04.240Z,63.19
2022-11-27T02:29:36.314Z,64.37
2022-11-27T02:30:08.257Z,64.44
2022-11-27T02:30:43.278Z,64.04
2022-11-27T02:31:14.953Z,63.37
2022-11-27T02:31:51.221Z,62.37
2022-11-27T02:32:26.019Z,61.59
2022-11-27T02:32:59.284Z,60.53
2022-11-27T02:33:32.278Z,59.59
2022-11-27T02:34:10.100Z,58.63
2022-11-27T02:34:41.850Z,57.54
2022-11-27T02:35:16.915Z,57.17
2022-11-27T02:36:08.988Z,57.13
2022-11-27T02:36:43.391Z,57.21
2022-11-27T02:37:20.249Z,58.44
2022-11-27T02:37:56.103Z,59.06
2022-11-27T02:38:31.120Z,59.95
2022-11-27T02:39:04.828Z,60.87
2022-11-27T02:40:06.086Z,61.71
2022-11-27T02:40:53.106Z,61.28
2022-11-27T02:41:38.297Z,62.90
2022-11-27T02:42:15.977Z,64.56
2022-11-27T02:42:51.917Z,64.84
2022-11-27T02:43:26.977Z,64.34
2022-11-27T02:44:00.233Z,63.56
2022-11-27T02:44:34.438Z,62.52
2022-11-27T02:45:14.439Z,61.59
2022-11-27T02:45:48.389Z,61.06
2022-11-27T02:46:21.027Z,59.92
2022-11-27T02:46:54.221Z,59.03
2022-11-27T02:47:27.099Z,58.07
2022-11-27T02:47:59.242Z,57.57
2022-11-27T02:48:33.285Z,57.47
2022-11-27T02:49:07.442Z,57.66
2022-11-27T02:49:40.480Z,58.37
2022-11-27T02:50:14.940Z,59.01
2022-11-27T02:50:48.555Z,59.63
2022-11-27T02:51:25.970Z,60.36
2022-11-27T02:51:58.718Z,61.30
2022-11-27T02:52:31.213Z,62.25
2022-11-27T02:53:05.630Z,62.81
2022-11-27T02:53:42.399Z,63.54
2022-11-27T02:54:18.014Z,63.96
2022-11-27T02:54:51.621Z,63.73
2022-11-27T02:55:26.146Z,63.22
2022-11-27T02:55:58.564Z,62.58
2022-11-27T02:56:31.062Z,61.47
2022-11-27T02:57:04.377Z,60.57
2022-11-27T02:57:37.367Z,59.98
2022-11-27T02:58:10.373Z,59.15
2022-11-27T02:58:42.565Z,58.09
2022-11-27T02:59:15.295Z,57.42
2022-11-27T02:59:48.833Z,57.35
2022-11-27T03:00:20.614Z,57.67
2022-11-27T03:00:54.544Z,58.16
2022-11-27T03:01:29.283Z,58.73
2022-11-27T03:02:04.278Z,59.50
2022-11-27T03:02:39.138Z,60.22
2022-11-27T03:03:12.698Z,61.06
2022-11-27T03:03:46.282Z,61.84
2022-11-27T03:04:20.836Z,62.59
2022-11-27T03:04:54.276Z,63.49
2022-11-27T03:05:28.311Z,64.14
2022-11-27T03:06:02.958Z,64.26
2022-11-27T03:06:37.700Z,63.71
2022-11-27T03:07:13.457Z,62.80
2022-11-27T03:07:52.783Z,61.77
2022-11-27T03:08:36.096Z,60.79
2022-11-27T03:09:29.001Z,60.30
2022-11-27T03:10:06.520Z,59.58
2022-11-27T03:10:48.686Z,57.54
2022-11-27T03:11:20.637Z,56.99
2022-11-27T03:11:52.531Z,57.31
2022-11-27T03:12:24.328Z,57.86
2022-11-27T03:12:56.086Z,58.37
2022-11-27T03:13:28.524Z,58.95
2022-11-27T03:14:06.090Z,59.76
2022-11-27T03:14:38.889Z,60.27
2022-11-27T03:15:11.491Z,61.25
2022-11-27T03:15:53.287Z,61.99
2022-11-27T03:16:28.031Z,62.51
2022-11-27T03:17:16.786Z,63.71
2022-11-27T03:18:06.390Z,64.49
2022-11-27T03:18:38.314Z,64.38
2022-11-27T03:19:09.956Z,62.31
2022-11-27T03:19:53.100Z,61.13
2022-11-27T03:20:30.617Z,60.80
2022-11-27T03:21:06.173Z,59.26
2022-11-27T03:21:43.503Z,57.63
2022-11-27T03:22:16.102Z,56.68
2022-11-27T03:22:47.973Z,56.64
2022-11-27T03:23:20.296Z,56.88
2022-11-27T03:23:51.987Z,57.37
2022-11-27T03:24:24.235Z,58.03
2022-11-27T03:24:56.231Z,58.68
2022-11-27T03:25:28.100Z,59.40
2022-11-27T03:25:59.870Z,60.13
2022-11-27T03:26:31.701Z,60.83
2022-11-27T03:27:04.075Z,61.52
2022-11-27T03:27:39.548Z,62.19
2022-11-27T03:28:13.327Z,62.81
2022-11-27T03:28:45.825Z,63.72
2022-11-27T03:29:21.603Z,64.04
2022-11-27T03:29:56.289Z,63.99
2022-11-27T03:30:28.235Z,63.17
2022-11-27T03:31:01.058Z,61.91
2022-11-27T03:31:33.203Z,60.94
2022-11-27T03:32:05.444Z,59.79
2022-11-27T03:32:37.202Z,58.66
2022-11-27T03:33:08.996Z,57.54
2022-11-27T03:33:40.848Z,56.79
2022-11-27T03:34:12.742Z,56.68
2022-11-27T03:34:45.370Z,56.84
2022-11-27T03:35:18.306Z,57.35
2022-11-27T03:35:51.941Z,57.94
2022-11-27T03:36:23.768Z,58.68
2022-11-27T03:36:55.420Z,59.55
2022-11-27T03:37:27.425Z,60.25
2022-11-27T03:37:59.187Z,60.94
2022-11-27T03:38:30.933Z,61.67
2022-11-27T03:39:03.516Z,62.38
2022-11-27T03:39:35.476Z,63.11
2022-11-27T03:40:08.277Z,63.87
2022-11-27T03:40:45.853Z,64.21
2022-11-27T03:41:32.767Z,64.06
2022-11-27T03:42:23.587Z,63.79
2022-11-27T03:43:03.230Z,62.82
2022-11-27T03:43:37.588Z,60.90
2022-11-27T03:44:21.400Z,59.36
2022-11-27T03:45:11.793Z,58.34
2022-11-27T03:45:51.318Z,56.69
2022-11-27T03:46:28.094Z,56.35
2022-11-27T03:47:15.541Z,56.78
2022-11-27T03:48:10.626Z,57.04
2022-11-27T03:48:53.740Z,57.70
2022-11-27T03:49:54.701Z,59.15
2022-11-27T03:50:44.830Z,59.31
2022-11-27T03:51:19.384Z,60.81
2022-11-27T03:51:53.909Z,62.42
2022-11-27T03:52:50.396Z,63.29
2022-11-27T03:53:40.464Z,64.90
2022-11-27T03:54:19.777Z,65.10
2022-11-27T03:55:03.811Z,63.78
2022-11-27T03:55:54.645Z,62.62
2022-11-27T03:56:52.584Z,61.80
2022-11-27T03:57:27.036Z,60.66
2022-11-27T03:58:08.100Z,58.20
2022-11-27T03:58:42.716Z,56.66
2022-11-27T03:59:16.549Z,56.10
2022-11-27T03:59:50.137Z,56.02
2022-11-27T04:00:21.796Z,56.33
2022-11-27T04:00:54.436Z,56.98
2022-11-27T04:01:26.951Z,57.59
2022-11-27T04:01:58.765Z,58.31
2022-11-27T04:02:39.193Z,59.03
2022-11-27T04:03:12.144Z,59.48
2022-11-27T04:03:43.888Z,60.53
2022-11-27T04:04:15.760Z,61.35
2022-11-27T04:04:47.526Z,62.07
2022-11-27T04:05:19.853Z,62.75
2022-11-27T04:05:51.562Z,63.56
2022-11-27T04:06:23.294Z,63.97
2022-11-27T04:06:55.047Z,63.77
2022-11-27T04:07:26.758Z,63.28
2022-11-27T04:07:58.586Z,62.18
2022-11-27T04:08:30.857Z,61.33
2022-11-27T04:09:02.783Z,60.36
2022-11-27T04:09:34.511Z,59.40
2022-11-27T04:10:06.632Z,58.39
2022-11-27T04:10:38.307Z,57.33
2022-11-27T04:11:09.939Z,56.67
2022-11-27T04:11:41.559Z,56.62
2022-11-27T04:12:13.270Z,56.93
2022-11-27T04:12:44.971Z,57.48
2022-11-27T04:13:16.728Z,58.16
2022-11-27T04:13:48.556Z,58.75
2022-11-27T04:14:20.338Z,59.41
2022-11-27T04:14:52.045Z,60.09
2022-11-27T04:15:23.708Z,60.77
2022-11-27T04:15:55.403Z,61.41
2022-11-27T04:16:27.272Z,62.06
2022-11-27T04:16:59.009Z,62.72
2022-11-27T04:17:30.869Z,63.47
2022-11-27T04:18:02.593Z,63.86
2022-11-27T04:18:34.217Z,63.74
2022-11-27T04:19:05.915Z,63.20
2022-11-27T04:19:37.598Z,62.42
2022-11-27T04:20:10.287Z,61.43
2022-11-27T04:20:41.988Z,60.45
2022-11-27T04:21:13.632Z,59.46
2022-11-27T04:21:45.253Z,58.51
2022-11-27T04:22:16.835Z,57.52
2022-11-27T04:22:48.538Z,56.94
2022-11-27T04:23:20.264Z,56.82
2022-11-27T04:23:52.039Z,57.13
2022-11-27T04:24:23.841Z,57.65
2022-11-27T04:24:55.505Z,58.28
2022-11-27T04:25:27.196Z,58.94
2022-11-27T04:25:59.021Z,59.68
2022-11-27T04:26:30.761Z,60.40
2022-11-27T04:27:02.450Z,61.10
2022-11-27T04:27:34.142Z,61.74
2022-11-27T04:28:05.906Z,62.36
2022-11-27T04:28:37.743Z,62.86
2022-11-27T04:29:09.839Z,63.62
2022-11-27T04:29:41.627Z,63.96
2022-11-27T04:30:13.730Z,63.73
2022-11-27T04:30:45.607Z,63.05
2022-11-27T04:31:17.879Z,62.13
2022-11-27T04:31:49.846Z,61.12
2022-11-27T04:32:21.669Z,60.14
2022-11-27T04:32:53.239Z,59.29
2022-11-27T04:33:24.959Z,58.41
2022-11-27T04:33:56.578Z,57.36
2022-11-27T04:34:28.375Z,56.83
2022-11-27T04:35:00.035Z,56.78
2022-11-27T04:35:31.700Z,57.11
2022-11-27T04:36:03.591Z,57.58
2022-11-27T04:36:39.196Z,58.19
2022-11-27T04:37:11.535Z,58.84
2022-11-27T04:37:43.413Z,59.64
2022-11-27T04:38:15.186Z,60.23
2022-11-27T04:38:46.928Z,60.87
2022-11-27T04:39:19.254Z,61.51
2022-11-27T04:39:50.933Z,62.11
2022-11-27T04:40:22.703Z,62.74
2022-11-27T04:40:54.446Z,63.46
2022-11-27T04:41:26.195Z,63.91
2022-11-27T04:41:58.045Z,63.73
2022-11-27T04:42:29.929Z,63.23
2022-11-27T04:43:01.789Z,62.52
2022-11-27T04:43:33.394Z,61.55
2022-11-27T04:44:05.206Z,60.61
2022-11-27T04:44:36.914Z,59.71
2022-11-27T04:45:09.069Z,58.73
2022-11-27T04:45:40.937Z,57.71
2022-11-27T04:46:12.748Z,57.04
2022-11-27T04:46:44.653Z,56.91
2022-11-27T04:47:16.740Z,57.14
2022-11-27T04:47:48.587Z,57.64
2022-11-27T04:48:20.354Z,58.24
2022-11-27T04:48:52.100Z,58.89
2022-11-27T04:49:23.744Z,59.57
2022-11-27T04:49:55.355Z,60.29
2022-11-27T04:50:27.298Z,60.90
2022-11-27T04:50:59.029Z,61.45
2022-11-27T04:51:30.766Z,62.10
2022-11-27T04:52:02.513Z,62.65
2022-11-27T04:52:34.390Z,63.36
2022-11-27T04:53:06.103Z,63.77
2022-11-27T04:53:37.988Z,63.62
2022-11-27T04:54:09.801Z,63.12
2022-11-27T04:54:41.582Z,62.30
2022-11-27T04:55:13.703Z,61.31
2022-11-27T04:55:45.289Z,60.49
2022-11-27T04:56:16.961Z,59.55
2022-11-27T04:56:48.792Z,58.63
2022-11-27T04:57:20.411Z,57.68
2022-11-27T04:57:52.222Z,57.17
2022-11-27T04:58:24.373Z,57.14
2022-11-27T04:58:56.099Z,57.29
2022-11-27T04:59:28.343Z,57.74
2022-11-27T05:00:00.025Z,58.34
2022-11-27T05:00:31.891Z,59.13
2022-11-27T05:01:03.781Z,59.81
2022-11-27T05:01:35.544Z,60.51
2022-11-27T05:02:07.274Z,61.12
2022-11-27T05:02:39.735Z,61.80
2022-11-27T05:03:11.732Z,62.38
2022-11-27T05:03:43.499Z,63.01
2022-11-27T05:04:15.678Z,63.70
2022-11-27T05:04:47.424Z,64.00
2022-11-27T05:05:19.524Z,63.74
2022-11-27T05:05:56.128Z,63.16
2022-11-27T05:06:27.805Z,62.56
2022-11-27T05:06:59.711Z,61.38
2022-11-27T05:07:31.367Z,60.50
2022-11-27T05:08:03.201Z,59.63
2022-11-27T05:08:35.028Z,58.69
2022-11-27T05:09:06.800Z,57.72
2022-11-27T05:09:38.555Z,57.16
2022-11-27T05:10:10.812Z,57.11
2022-11-27T05:10:42.332Z,57.33
2022-11-27T05:11:15.459Z,57.86
2022-11-27T05:11:47.310Z,58.38
2022-11-27T05:12:18.937Z,59.04
2022-11-27T05:12:50.578Z,59.71
2022-11-27T05:13:22.269Z,60.37
2022-11-27T05:14:13.946Z,61.04
2022-11-27T05:14:45.573Z,61.02
2022-11-27T05:15:17.384Z,62.54
2022-11-27T05:15:49.150Z,63.31
2022-11-27T05:16:21.005Z,64.03
2022-11-27T05:16:53.880Z,64.37
2022-11-27T05:17:25.458Z,64.16
2022-11-27T05:17:57.217Z,63.58
2022-11-27T05:18:28.890Z,62.73
2022-11-27T05:19:00.687Z,61.84
2022-11-27T05:19:32.850Z,61.01
2022-11-27T05:20:05.024Z,60.23
2022-11-27T05:20:36.749Z,59.54
2022-11-27T05:21:08.440Z,58.66
2022-11-27T05:21:40.549Z,57.88
2022-11-27T05:22:12.338Z,57.37
2022-11-27T05:22:45.778Z,57.44
2022-11-27T05:23:17.620Z,57.74
2022-11-27T05:23:49.547Z,58.21
2022-11-27T05:24:22.241Z,58.81
2022-11-27T05:24:53.966Z,59.45
2022-11-27T05:25:25.609Z,60.13
2022-11-27T05:25:57.691Z,60.83
2022-11-27T05:26:29.481Z,61.56
2022-11-27T05:27:01.154Z,62.23
2022-11-27T05:27:32.828Z,62.87
2022-11-27T05:28:04.670Z,63.60
2022-11-27T05:28:36.425Z,64.05
2022-11-27T05:29:08.815Z,63.95
2022-11-27T05:29:40.591Z,63.43
2022-11-27T05:30:12.443Z,62.57
2022-11-27T05:30:44.220Z,61.65
2022-11-27T05:31:16.082Z,60.85
2022-11-27T05:31:48.239Z,59.98
2022-11-27T05:32:20.228Z,59.11
2022-11-27T05:32:51.790Z,58.17
2022-11-27T05:33:23.450Z,57.52
2022-11-27T05:33:55.317Z,57.35
2022-11-27T05:34:27.019Z,57.57
2022-11-27T05:34:58.867Z,58.00
2022-11-27T05:35:34.382Z,58.56
2022-11-27T05:36:06.182Z,59.11
2022-11-27T05:36:37.869Z,59.87
2022-11-27T05:37:09.640Z,60.52
2022-11-27T05:37:41.292Z,61.16
2022-11-27T05:38:16.381Z,61.80
2022-11-27T05:38:48.839Z,62.35
2022-11-27T05:39:21.736Z,63.12
2022-11-27T05:39:53.816Z,63.80
2022-11-27T05:40:25.442Z,64.08
2022-11-27T05:40:57.165Z,63.88
2022-11-27T05:41:28.846Z,63.44
2022-11-27T05:42:01.534Z,62.71
2022-11-27T05:42:33.609Z,62.02
2022-11-27T05:43:05.554Z,61.18
2022-11-27T05:43:37.224Z,60.41
2022-11-27T05:44:14.426Z,59.69
2022-11-27T05:44:46.319Z,59.05
2022-11-27T05:45:18.084Z,57.92
2022-11-27T05:45:49.839Z,57.36
2022-11-27T05:46:22.880Z,57.32
2022-11-27T05:46:54.747Z,57.65
2022-11-27T05:47:26.620Z,58.13
2022-11-27T05:47:58.480Z,58.72
2022-11-27T05:48:30.166Z,59.27
2022-11-27T05:49:02.028Z,59.92
2022-11-27T05:49:33.858Z,60.56
2022-11-27T05:50:06.081Z,61.23
2022-11-27T05:50:37.869Z,61.87
2022-11-27T05:51:09.768Z,62.52
2022-11-27T05:51:46.523Z,63.22
2022-11-27T05:52:22.767Z,64.21
2022-11-27T05:52:54.382Z,64.25
2022-11-27T05:53:26.173Z,63.80
2022-11-27T05:53:57.986Z,63.05
2022-11-27T05:54:29.827Z,62.17
2022-11-27T05:55:01.672Z,61.22
2022-11-27T05:55:33.486Z,60.39
2022-11-27T05:56:07.172Z,59.52
2022-11-27T05:56:38.871Z,58.65
2022-11-27T05:57:10.711Z,57.66
2022-11-27T05:57:42.410Z,57.15
2022-11-27T05:58:14.066Z,57.00
2022-11-27T05:58:47.196Z,57.28
2022-11-27T05:59:19.275Z,57.76
2022-11-27T05:59:51.253Z,58.41
2022-11-27T06:00:23.209Z,59.14
2022-11-27T06:00:54.931Z,59.80
2022-11-27T06:01:26.597Z,60.44
2022-11-27T06:01:58.491Z,61.11
2022-11-27T06:02:30.364Z,61.76
2022-11-27T06:03:02.232Z,62.39
2022-11-27T06:03:34.756Z,63.06
2022-11-27T06:04:06.592Z,63.77
2022-11-27T06:04:38.869Z,64.17
2022-11-27T06:05:10.833Z,63.93
2022-11-27T06:05:42.605Z,63.19
2022-11-27T06:06:15.830Z,62.41
2022-11-27T06:06:47.649Z,61.55
2022-11-27T06:07:19.574Z,60.58
2022-11-27T06:07:51.520Z,59.73
2022-11-27T06:08:23.390Z,58.90
2022-11-27T06:08:55.105Z,57.93
2022-11-27T06:09:26.782Z,57.29
2022-11-27T06:09:58.448Z,57.10
2022-11-27T06:10:30.291Z,57.29
2022-11-27T06:11:05.602Z,57.72
2022-11-27T06:11:37.294Z,58.25
2022-11-27T06:12:09.468Z,58.99
2022-11-27T06:12:41.102Z,59.66
2022-11-27T06:13:13.192Z,60.41
2022-11-27T06:13:45.798Z,61.07
2022-11-27T06:14:17.704Z,61.68
2022-11-27T06:14:49.674Z,62.36
2022-11-27T06:15:21.520Z,62.97
2022-11-27T06:15:53.446Z,63.78
2022-11-27T06:16:25.439Z,64.20
2022-11-27T06:16:57.717Z,63.96
2022-11-27T06:17:29.654Z,63.36
2022-11-27T06:18:01.476Z,62.48
2022-11-27T06:18:33.450Z,61.58
2022-11-27T06:19:05.175Z,60.66
2022-11-27T06:19:36.909Z,59.70
2022-11-27T06:20:08.866Z,58.87
2022-11-27T06:20:44.152Z,57.93
2022-11-27T06:21:17.655Z,57.22
2022-11-27T06:21:49.566Z,57.28
2022-11-27T06:22:21.222Z,57.58
2022-11-27T06:22:53.065Z,58.10
2022-11-27T06:23:25.088Z,58.63
2022-11-27T06:23:57.094Z,59.21
2022-11-27T06:24:28.939Z,59.84
2022-11-27T06:25:00.690Z,60.46
2022-11-27T06:25:32.595Z,61.06
2022-11-27T06:26:15.176Z,61.64
2022-11-27T06:26:47.387Z,61.89
2022-11-27T06:27:19.268Z,62.97
2022-11-27T06:27:51.076Z,63.75
2022-11-27T06:28:23.071Z,64.14
2022-11-27T06:28:55.921Z,63.97
2022-11-27T06:29:27.638Z,63.55
2022-11-27T06:29:59.357Z,62.78
2022-11-27T06:30:31.073Z,61.83
2022-11-27T06:31:06.828Z,60.93
2022-11-27T06:31:38.659Z,60.35
2022-11-27T06:32:10.754Z,59.36
2022-11-27T06:32:42.614Z,58.46
2022-11-27T06:33:14.417Z,57.65
2022-11-27T06:33:47.203Z,57.16
2022-11-27T06:34:18.966Z,57.15
2022-11-27T06:34:50.823Z,57.50
2022-11-27T06:35:22.467Z,58.03
2022-11-27T06:35:54.769Z,58.63
2022-11-27T06:36:34.144Z,59.25
2022-11-27T06:37:10.397Z,59.57
2022-11-27T06:37:44.745Z,60.36
2022-11-27T06:38:16.455Z,61.30
2022-11-27T06:38:48.310Z,61.91
2022-11-27T06:39:20.276Z,62.50
2022-11-27T06:39:52.071Z,63.13
2022-11-27T06:40:23.753Z,63.65
2022-11-27T06:40:55.480Z,63.99
2022-11-27T06:41:28.239Z,63.85
2022-11-27T06:42:00.332Z,63.39
2022-11-27T06:42:32.073Z,62.61
2022-11-27T06:43:03.800Z,61.65
2022-11-27T06:43:36.125Z,60.67
2022-11-27T06:44:08.900Z,59.86
2022-11-27T06:44:40.852Z,59.03
2022-11-27T06:45:13.752Z,58.11
2022-11-27T06:45:54.250Z,57.45
2022-11-27T06:46:26.699Z,57.04
2022-11-27T06:46:58.584Z,57.50
2022-11-27T06:47:30.374Z,58.08
2022-11-27T06:48:02.231Z,58.60
2022-11-27T06:48:34.071Z,59.27
2022-11-27T06:49:05.930Z,59.97
2022-11-27T06:49:37.818Z,60.65
2022-11-27T06:50:09.823Z,61.34
2022-11-27T06:50:41.646Z,61.99
2022-11-27T06:51:14.994Z,62.57
2022-11-27T06:51:48.353Z,63.14
2022-11-27T06:52:20.078Z,63.94
2022-11-27T06:52:51.678Z,64.23
2022-11-27T06:53:23.475Z,64.06
2022-11-27T06:53:55.314Z,63.36
2022-11-27T06:54:27.201Z,62.41
2022-11-27T06:54:58.799Z,61.40
2022-11-27T06:55:30.527Z,60.24
2022-11-27T06:56:09.556Z,59.19
2022-11-27T06:56:41.513Z,58.03
2022-11-27T06:57:14.070Z,56.96
2022-11-27T06:57:45.819Z,56.65
2022-11-27T06:58:17.400Z,56.74
2022-11-27T06:58:53.661Z,57.15
2022-11-27T06:59:25.504Z,57.58
2022-11-27T06:59:57.338Z,58.42
2022-11-27T07:00:29.137Z,59.10
2022-11-27T07:01:05.906Z,59.76
2022-11-27T07:01:37.876Z,60.19
2022-11-27T07:02:13.296Z,61.01
2022-11-27T07:02:45.370Z,61.64
2022-11-27T07:03:17.335Z,62.33
2022-11-27T07:03:49.173Z,62.93
2022-11-27T07:04:20.857Z,63.69
2022-11-27T07:04:52.597Z,64.03
2022-11-27T07:05:24.553Z,63.79
2022-11-27T07:05:59.600Z,62.94
2022-11-27T07:06:31.666Z,62.10
2022-11-27T07:07:03.551Z,60.72
2022-11-27T07:07:37.559Z,59.57
2022-11-27T07:08:13.051Z,58.46
2022-11-27T07:08:45.063Z,57.06
2022-11-27T07:09:16.791Z,56.33
2022-11-27T07:09:48.876Z,56.20
2022-11-27T07:10:20.600Z,56.37
2022-11-27T07:10:52.500Z,56.85
2022-11-27T07:11:25.674Z,57.50
2022-11-27T07:11:57.630Z,58.14
2022-11-27T07:12:29.517Z,58.71
2022-11-27T07:13:01.538Z,59.36
2022-11-27T07:13:33.338Z,60.06
2022-11-27T07:14:05.643Z,60.80
2022-11-27T07:14:37.682Z,61.41
2022-11-27T07:15:09.546Z,62.01
2022-11-27T07:15:41.493Z,62.56
2022-11-27T07:16:13.892Z,63.38
2022-11-27T07:16:45.869Z,63.84
2022-11-27T07:17:17.684Z,63.65